createdAt,value
2022-11-23T00:01:19.152Z,95986.75
2022-11-23T00:03:49.272Z,95985.94
2022-11-23T00:06:18.373Z,95985.13
2022-11-23T00:08:47.028Z,95983.16
2022-11-23T00:11:15.990Z,95982.34
2022-11-23T00:13:44.583Z,95980.69
2022-11-23T00:16:15.889Z,95981.66
2022-11-23T00:18:46.102Z,95987.59
2022-11-23T00:21:16.038Z,95977.22
2022-11-23T00:23:45.139Z,95978.22
2022-11-23T00:26:14.145Z,95989.38
2022-11-23T00:28:43.105Z,95987.75
2022-11-23T00:31:13.667Z,95995.47
2022-11-23T00:33:42.698Z,95999.91
2022-11-23T00:36:14.717Z,95999.22
2022-11-23T00:38:44.277Z,95996.44
2022-11-23T00:41:15.444Z,95992.16
2022-11-23T00:43:44.377Z,95999.22
2022-11-23T00:46:15.857Z,95999.38
2022-11-23T00:48:44.549Z,95987.88
2022-11-23T00:51:16.426Z,95994.81
2022-11-23T00:53:45.064Z,95997.44
2022-11-23T00:56:14.205Z,95992.16
2022-11-23T00:58:43.019Z,95990.53
2022-11-23T01:01:13.951Z,96000.06
2022-11-23T01:03:44.012Z,95992.16
2022-11-23T01:06:15.868Z,95994.94
2022-11-23T01:08:51.482Z,95993.16
2022-11-23T01:11:20.658Z,95993.00
2022-11-23T01:13:49.443Z,95991.50
2022-11-23T01:16:24.125Z,95992.16
2022-11-23T01:18:56.559Z,95994.81
2022-11-23T01:21:27.776Z,95996.59
2022-11-23T01:23:57.183Z,95995.78
2022-11-23T01:26:26.313Z,95997.56
2022-11-23T01:28:54.849Z,95999.22
2022-11-23T01:31:26.353Z,96006.28
2022-11-23T01:33:55.453Z,95994.13
2022-11-23T01:36:27.100Z,95995.78
2022-11-23T01:38:55.956Z,96000.38
2022-11-23T01:41:26.140Z,96003.00
2022-11-23T01:43:55.423Z,96011.69
2022-11-23T01:46:24.215Z,96003.00
2022-11-23T01:48:55.463Z,96015.00
2022-11-23T01:51:27.536Z,96005.63
2022-11-23T01:53:58.976Z,96011.69
2022-11-23T01:56:31.548Z,96019.59
2022-11-23T01:59:01.652Z,96016.97
2022-11-23T02:01:30.292Z,96023.88
2022-11-23T02:04:00.580Z,96030.91
2022-11-23T02:06:31.366Z,96032.72
2022-11-23T02:09:03.630Z,96032.72
2022-11-23T02:11:32.352Z,96035.34
2022-11-23T02:14:00.851Z,96042.41
2022-11-23T02:16:32.120Z,96041.44
2022-11-23T02:19:00.963Z,96037.16
2022-11-23T02:21:30.956Z,96036.31
2022-11-23T02:24:03.071Z,96031.06
2022-11-23T02:26:34.808Z,96040.75
2022-11-23T02:29:08.960Z,96035.50
2022-11-23T02:35:51.977Z,96035.50
2022-11-23T02:38:20.856Z,96035.50
2022-11-23T02:40:49.649Z,96031.22
2022-11-23T02:43:20.498Z,96038.13
2022-11-23T02:45:51.845Z,96032.88
2022-11-23T02:48:20.668Z,96038.13
2022-11-23T02:50:49.195Z,96039.09
2022-11-23T02:53:19.416Z,96038.97
2022-11-23T02:55:48.073Z,96033.03
2022-11-23T02:58:16.649Z,96034.81
2022-11-23T03:00:46.515Z,96028.75
2022-11-23T03:03:14.887Z,96030.41
2022-11-23T03:05:44.648Z,96031.38
2022-11-23T03:08:13.064Z,96036.47
2022-11-23T03:10:42.131Z,96035.66
2022-11-23T03:13:10.739Z,96036.47
2022-11-23T03:15:41.142Z,96033.19
2022-11-23T03:18:12.442Z,96022.66
2022-11-23T03:20:41.442Z,96035.81
2022-11-23T03:23:09.784Z,96042.84
2022-11-23T03:25:38.125Z,96035.66
2022-11-23T03:28:07.389Z,96038.44
2022-11-23T03:30:35.915Z,96035.81
2022-11-23T03:33:06.874Z,96031.66
2022-11-23T03:35:36.673Z,96029.88
2022-11-23T03:38:19.215Z,96032.66
2022-11-23T03:40:48.395Z,96033.47
2022-11-23T03:43:49.332Z,96021.31
2022-11-23T03:46:18.101Z,96017.72
2022-11-23T03:48:46.598Z,96024.09
2022-11-23T03:51:17.811Z,96022.28
2022-11-23T03:53:46.161Z,96025.88
2022-11-23T03:56:15.127Z,96027.53
2022-11-23T03:58:47.150Z,96017.66
2022-11-23T04:01:16.185Z,96025.88
2022-11-23T04:03:47.473Z,96026.06
2022-11-23T04:06:29.639Z,96026.88
2022-11-23T04:09:03.870Z,96026.72
2022-11-23T04:11:48.935Z,96020.81
2022-11-23T04:14:17.554Z,96023.44
2022-11-23T04:16:46.177Z,96024.25
2022-11-23T04:19:14.585Z,96018.97
2022-11-23T04:21:44.389Z,96019.16
2022-11-23T04:24:12.870Z,96022.63
2022-11-23T04:26:42.707Z,96028.03
2022-11-23T04:29:12.555Z,96022.63
2022-11-23T04:31:45.720Z,96035.75
2022-11-23T04:34:17.361Z,96028.84
2022-11-23T04:36:47.543Z,96028.03
2022-11-23T04:39:15.958Z,96030.66
2022-11-23T04:41:58.528Z,96023.91
2022-11-23T04:44:26.875Z,96021.94
2022-11-23T04:47:01.520Z,96016.84
2022-11-23T04:49:30.290Z,96026.53
2022-11-23T04:52:00.345Z,96023.06
2022-11-23T04:54:34.744Z,96025.53
2022-11-23T04:57:05.777Z,96020.28
2022-11-23T04:59:34.417Z,96020.28
2022-11-23T05:02:03.099Z,96024.88
2022-11-23T05:04:44.587Z,96020.59
2022-11-23T05:07:15.658Z,96025.84
2022-11-23T05:09:48.084Z,96017.97
2022-11-23T05:12:21.910Z,96014.34
2022-11-23T05:14:50.318Z,96021.25
2022-11-23T05:17:24.749Z,96017.97
2022-11-23T05:19:55.812Z,96011.72
2022-11-23T05:22:26.722Z,96011.72
2022-11-23T05:24:55.716Z,96016.16
2022-11-23T05:27:26.520Z,96017.81
2022-11-23T05:29:55.788Z,96014.34
2022-11-23T05:32:24.464Z,96015.34
2022-11-23T05:34:53.075Z,96012.72
2022-11-23T05:37:21.552Z,96012.72
2022-11-23T05:40:03.223Z,96012.84
2022-11-23T05:42:33.630Z,96008.44
2022-11-23T05:45:11.878Z,96013.53
2022-11-23T05:47:44.890Z,96015.34
2022-11-23T05:50:23.195Z,96012.72
2022-11-23T05:53:11.623Z,96007.59
2022-11-23T05:55:41.464Z,96014.50
2022-11-23T05:58:10.063Z,96017.28
2022-11-23T06:00:38.910Z,96011.06
2022-11-23T06:03:09.921Z,96007.75
2022-11-23T06:05:39.287Z,96018.94
2022-11-23T06:08:07.674Z,96019.25
2022-11-23T06:10:36.227Z,96012.19
2022-11-23T06:13:06.189Z,96014.66
2022-11-23T06:15:35.868Z,96014.66
2022-11-23T06:18:05.467Z,96012.34
2022-11-23T06:20:45.570Z,96013.31
2022-11-23T06:23:13.970Z,96013.16
2022-11-23T06:25:42.482Z,96007.75
2022-11-23T06:28:30.873Z,96011.50
2022-11-23T06:31:03.468Z,96013.16
2022-11-23T06:33:34.153Z,96021.88
2022-11-23T06:36:04.102Z,96021.88
2022-11-23T06:38:44.245Z,96025.31
2022-11-23T06:41:16.425Z,96019.38
2022-11-23T06:43:47.551Z,96026.44
2022-11-23T06:46:28.007Z,96034.19
2022-11-23T06:48:56.847Z,96036.81
2022-11-23T06:51:25.342Z,96031.69
2022-11-23T06:53:54.454Z,96029.22
2022-11-23T06:56:23.733Z,96031.03
2022-11-23T06:58:53.705Z,96036.81
2022-11-23T07:01:26.669Z,96037.63
2022-11-23T07:04:00.977Z,96033.34
2022-11-23T07:06:36.155Z,96045.50
2022-11-23T07:09:10.085Z,96038.91
2022-11-23T07:11:47.961Z,96045.81
2022-11-23T07:14:19.094Z,96053.38
2022-11-23T07:16:50.130Z,96051.75
2022-11-23T07:19:20.361Z,96052.72
2022-11-23T07:21:49.995Z,96057.00
2022-11-23T07:24:18.828Z,96063.06
2022-11-23T07:26:47.232Z,96060.44
2022-11-23T07:29:15.917Z,96069.16
2022-11-23T07:31:45.580Z,96065.69
2022-11-23T07:34:15.818Z,96073.59
2022-11-23T07:36:45.034Z,96072.75
2022-11-23T07:39:13.371Z,96072.91
2022-11-23T07:41:41.732Z,96077.19
2022-11-23T07:44:26.927Z,96078.00
2022-11-23T07:46:56.675Z,96082.28
2022-11-23T07:49:25.079Z,96081.47
2022-11-23T07:51:54.255Z,96088.53
2022-11-23T07:54:23.895Z,96080.63
2022-11-23T07:56:52.478Z,96091.97
2022-11-23T07:59:20.967Z,96088.38
2022-11-23T08:01:53.061Z,96095.44
2022-11-23T08:04:26.715Z,96098.06
2022-11-23T08:06:55.209Z,96099.03
2022-11-23T08:09:24.457Z,96096.41
2022-11-23T08:11:53.811Z,96091.16
2022-11-23T08:14:22.465Z,96092.28
2022-11-23T08:16:51.245Z,96097.22
2022-11-23T08:19:19.667Z,96082.44
2022-11-23T08:21:49.373Z,96098.06
2022-11-23T08:24:17.798Z,96095.28
2022-11-23T08:26:46.298Z,96093.63
2022-11-23T08:29:14.822Z,96101.38
2022-11-23T08:31:43.751Z,96099.72
2022-11-23T08:34:12.428Z,96098.72
2022-11-23T08:36:40.941Z,96098.06
2022-11-23T08:39:11.359Z,96095.72
2022-11-23T08:41:39.758Z,96097.09
2022-11-23T08:44:10.990Z,96101.38
2022-11-23T08:46:39.565Z,96090.84
2022-11-23T08:49:08.387Z,96096.94
2022-11-23T08:51:36.812Z,96094.44
2022-11-23T08:54:05.230Z,96090.84
2022-11-23T08:56:35.065Z,96097.63
2022-11-23T08:59:03.537Z,96094.16
2022-11-23T09:01:32.070Z,96092.50
2022-11-23T09:04:01.892Z,96095.81
2022-11-23T09:06:30.224Z,96090.56
2022-11-23T09:08:58.596Z,96092.34
2022-11-23T09:11:27.957Z,96083.66
2022-11-23T09:13:58.281Z,96096.50
2022-11-23T09:16:30.919Z,96090.56
2022-11-23T09:19:02.330Z,96097.31
2022-11-23T09:21:34.086Z,96092.06
2022-11-23T09:24:03.395Z,96089.13
2022-11-23T09:26:33.935Z,96092.75
2022-11-23T09:29:03.811Z,96091.59
2022-11-23T09:31:32.201Z,96087.31
2022-11-23T09:34:00.578Z,96090.59
2022-11-23T09:36:30.028Z,96091.28
2022-11-23T09:38:58.774Z,96085.88
2022-11-23T09:41:57.695Z,96093.19
2022-11-23T09:44:34.390Z,96083.50
2022-11-23T09:47:14.840Z,96088.91
2022-11-23T09:49:48.512Z,96090.53
2022-11-23T09:52:19.616Z,96094.81
2022-11-23T09:54:56.292Z,96081.16
2022-11-23T09:57:26.807Z,96089.41
2022-11-23T09:59:59.106Z,96085.81
2022-11-23T10:02:29.803Z,96073.34
2022-11-23T10:05:00.409Z,96086.03
2022-11-23T10:07:42.344Z,96081.69
2022-11-23T10:10:20.491Z,96084.09
2022-11-23T10:12:52.383Z,96078.22
2022-11-23T10:15:26.491Z,96074.03
2022-11-23T10:18:17.055Z,96070.97
2022-11-23T10:20:55.453Z,96062.91
2022-11-23T10:23:48.079Z,96065.91
2022-11-23T10:26:18.943Z,96066.28
2022-11-23T10:28:48.542Z,96055.41
2022-11-23T10:31:20.084Z,96056.38
2022-11-23T10:33:57.136Z,96054.41
2022-11-23T10:36:25.575Z,96051.16
2022-11-23T10:38:58.253Z,96044.44
2022-11-23T10:41:27.148Z,96054.50
2022-11-23T10:43:58.891Z,96051.72
2022-11-23T10:46:30.998Z,96044.34
2022-11-23T10:49:18.544Z,96037.94
2022-11-23T10:51:54.385Z,96041.09
2022-11-23T10:54:26.231Z,96047.00
2022-11-23T10:56:55.385Z,96033.53
2022-11-23T10:59:34.563Z,96046.41
2022-11-23T11:02:16.860Z,96039.16
2022-11-23T11:04:46.099Z,96043.13
2022-11-23T11:07:26.545Z,96040.50
2022-11-23T11:09:57.057Z,96031.97
2022-11-23T11:12:26.428Z,96031.00
2022-11-23T11:15:10.945Z,96032.34
2022-11-23T11:17:42.129Z,96033.69
2022-11-23T11:20:32.277Z,96036.00
2022-11-23T11:23:02.535Z,96025.63
2022-11-23T11:25:33.312Z,96027.47
2022-11-23T11:28:01.848Z,96029.78
2022-11-23T11:30:35.987Z,96029.47
2022-11-23T11:33:12.804Z,96016.63
2022-11-23T11:35:43.810Z,96018.28
2022-11-23T11:38:14.839Z,96019.78
2022-11-23T11:40:47.073Z,96013.34
2022-11-23T11:43:22.827Z,96013.19
2022-11-23T11:48:49.036Z,96012.03
2022-11-23T11:51:22.933Z,96006.78
2022-11-23T11:53:58.467Z,96006.09
2022-11-23T11:56:31.052Z,96004.13
2022-11-23T11:59:04.103Z,95996.91
2022-11-23T12:01:35.784Z,96009.91
2022-11-23T12:04:09.236Z,95996.56
2022-11-23T12:06:44.610Z,95991.47
2022-11-23T12:09:17.546Z,95986.34
2022-11-23T12:11:46.106Z,95989.00
2022-11-23T12:14:15.736Z,95987.66
2022-11-23T12:17:10.163Z,95986.84
2022-11-23T12:19:46.911Z,95984.03
2022-11-23T12:22:32.978Z,95987.50
2022-11-23T12:25:14.210Z,95986.34
2022-11-23T12:27:50.064Z,95980.59
2022-11-23T12:30:25.838Z,95978.78
2022-11-23T12:33:08.358Z,95986.34
2022-11-23T12:36:20.561Z,95979.13
2022-11-23T12:38:56.026Z,95969.91
2022-11-23T12:41:25.964Z,95980.13
2022-11-23T12:44:03.085Z,95976.16
2022-11-23T12:46:38.421Z,95983.75
2022-11-23T12:49:15.983Z,95986.22
2022-11-23T12:51:52.098Z,95988.03
2022-11-23T12:54:31.072Z,95982.09
2022-11-23T12:57:09.604Z,95987.38
2022-11-23T12:59:44.584Z,95981.28
2022-11-23T13:02:25.185Z,95968.25
2022-11-23T13:05:06.899Z,95974.50
2022-11-23T13:07:50.083Z,95978.13
2022-11-23T13:10:27.994Z,95968.25
2022-11-23T13:13:15.389Z,95970.72
2022-11-23T13:15:57.392Z,95962.50
2022-11-23T13:18:38.167Z,95970.59
2022-11-23T13:21:18.832Z,95973.88
2022-11-23T13:23:49.297Z,95977.50
2022-11-23T13:26:21.614Z,95974.72
2022-11-23T13:28:52.087Z,95978.16
2022-11-23T13:31:26.803Z,95975.69
2022-11-23T13:33:57.183Z,95967.13
2022-11-23T13:37:11.684Z,95969.75
2022-11-23T13:40:01.927Z,95972.25
2022-11-23T13:42:33.780Z,95962.34
2022-11-23T13:45:25.431Z,95970.09
2022-11-23T13:48:34.152Z,95971.09
2022-11-23T13:51:02.574Z,95967.47
2022-11-23T13:53:33.857Z,95964.69
2022-11-23T13:56:23.313Z,95965.53
2022-11-23T13:58:54.866Z,95961.09
2022-11-23T14:02:01.314Z,95953.84
2022-11-23T14:04:31.418Z,95949.38
2022-11-23T14:07:03.621Z,95952.03
2022-11-23T14:09:36.393Z,95950.06
2022-11-23T14:12:09.625Z,95951.69
2022-11-23T14:14:48.464Z,95951.53
2022-11-23T14:17:53.691Z,95949.72
2022-11-23T14:20:32.424Z,95945.94
2022-11-23T14:23:13.821Z,95943.13
2022-11-23T14:25:51.273Z,95936.72
2022-11-23T14:28:31.831Z,95947.09
2022-11-23T14:31:13.215Z,95941.66
2022-11-23T14:33:45.691Z,95941.50
2022-11-23T14:36:24.703Z,95946.59
2022-11-23T14:39:24.620Z,95948.09
2022-11-23T14:41:56.271Z,95949.91
2022-11-23T14:44:27.617Z,95946.28
2022-11-23T14:47:05.127Z,95961.09
2022-11-23T14:49:33.810Z,95953.19
2022-11-23T14:52:02.783Z,95962.09
2022-11-23T14:54:32.707Z,95956.81
2022-11-23T14:57:04.149Z,95958.47
2022-11-23T14:59:34.337Z,95957.81
2022-11-23T15:02:06.053Z,95953.84
2022-11-23T15:04:40.945Z,95955.16
2022-11-23T15:07:13.266Z,95956.31
2022-11-23T15:09:47.840Z,95955.31
2022-11-23T15:12:24.070Z,95958.94
2022-11-23T15:14:53.934Z,95959.13
2022-11-23T15:17:24.436Z,95949.56
2022-11-23T15:19:57.534Z,95950.53
2022-11-23T15:22:27.004Z,95954.16
2022-11-23T15:24:55.873Z,95948.25
2022-11-23T15:27:28.242Z,95960.44
2022-11-23T15:29:58.082Z,95960.44
2022-11-23T15:32:32.854Z,95962.41
2022-11-23T15:35:04.500Z,95966.03
2022-11-23T15:37:43.215Z,95972.28
2022-11-23T15:40:14.323Z,95975.75
2022-11-23T15:42:43.250Z,95976.72
2022-11-23T15:45:39.874Z,95968.00
2022-11-23T15:48:14.170Z,95970.78
2022-11-23T15:50:53.460Z,95971.75
2022-11-23T15:53:23.541Z,95967.47
2022-11-23T15:55:52.704Z,95972.75
2022-11-23T15:58:21.951Z,95964.00
2022-11-23T16:00:53.110Z,95962.53
2022-11-23T16:03:30.070Z,95951.81
2022-11-23T16:06:29.249Z,95942.25
2022-11-23T16:08:57.714Z,95942.44
2022-11-23T16:11:32.573Z,95938.97
2022-11-23T16:14:18.814Z,95944.41
2022-11-23T16:16:49.098Z,95958.41
2022-11-23T16:19:24.850Z,95962.69
2022-11-23T16:22:01.759Z,95955.09
2022-11-23T16:24:32.137Z,95958.56
2022-11-23T16:27:00.939Z,95957.91
2022-11-23T16:29:33.793Z,95951.81
2022-11-23T16:32:06.814Z,95958.06
2022-11-23T16:34:36.642Z,95969.44
2022-11-23T16:37:05.094Z,95960.69
2022-11-23T16:39:33.549Z,95963.50
2022-11-23T16:42:01.976Z,95958.38
2022-11-23T16:44:33.454Z,95958.38
2022-11-23T16:47:17.935Z,95957.41
2022-11-23T16:49:47.847Z,95962.66
2022-11-23T16:52:16.430Z,95958.53
2022-11-23T16:54:44.883Z,95959.38
2022-11-23T16:57:19.877Z,95960.34
2022-11-23T16:59:48.357Z,95960.34
2022-11-23T17:02:17.403Z,95969.25
2022-11-23T17:04:47.447Z,95972.88
2022-11-23T17:07:16.808Z,95977.97
2022-11-23T17:09:45.168Z,95970.72
2022-11-23T17:12:17.673Z,95976.47
2022-11-23T17:14:47.883Z,95974.69
2022-11-23T17:17:19.562Z,95989.66
2022-11-23T17:19:50.376Z,95992.44
2022-11-23T17:22:19.773Z,95996.75
2022-11-23T17:24:48.997Z,95994.25
2022-11-23T17:27:22.258Z,95997.72
2022-11-23T17:29:55.722Z,95986.53
2022-11-23T17:32:24.314Z,95988.31
2022-11-23T17:34:54.056Z,95996.22
2022-11-23T17:37:23.691Z,95994.59
2022-11-23T17:39:52.366Z,95990.97
2022-11-23T17:42:20.884Z,95988.34
2022-11-23T17:44:49.466Z,95997.22
2022-11-23T17:47:23.425Z,96002.47
2022-11-23T17:49:52.069Z,96001.00
2022-11-23T17:52:22.258Z,95999.19
2022-11-23T17:54:50.676Z,96009.72
2022-11-23T17:57:20.568Z,96020.25
2022-11-23T17:59:49.008Z,96011.69
2022-11-23T18:02:19.225Z,96022.22
2022-11-23T18:04:47.892Z,96014.31
2022-11-23T18:07:17.082Z,96018.97
2022-11-23T18:09:47.045Z,96018.97
2022-11-23T18:12:15.551Z,96020.78
2022-11-23T18:14:43.969Z,96021.59
2022-11-23T18:17:12.451Z,96030.47
2022-11-23T18:19:40.864Z,96022.91
2022-11-23T18:22:09.307Z,96028.16
2022-11-23T18:24:37.889Z,96031.78
2022-11-23T18:27:08.160Z,96040.50
2022-11-23T18:29:37.735Z,96048.41
2022-11-23T18:32:06.672Z,96046.75
2022-11-23T18:34:35.595Z,96056.47
2022-11-23T18:37:03.983Z,96052.19
2022-11-23T18:39:32.819Z,96057.44
2022-11-23T18:42:05.593Z,96054.00
2022-11-23T18:44:38.840Z,96053.31
2022-11-23T18:47:10.216Z,96052.50
2022-11-23T18:49:38.653Z,96053.63
2022-11-23T18:52:09.070Z,96051.16
2022-11-23T18:54:37.591Z,96060.88
2022-11-23T18:57:06.082Z,96078.16
2022-11-23T18:59:56.842Z,96063.50
2022-11-23T19:02:24.525Z,96063.34
2022-11-23T19:04:53.028Z,96078.31
2022-11-23T19:07:26.533Z,96070.88
2022-11-23T19:09:55.723Z,96080.28
2022-11-23T19:12:24.305Z,96085.56
2022-11-23T19:14:54.129Z,96097.91
2022-11-23T19:17:22.614Z,96100.53
2022-11-23T19:19:51.208Z,96101.50
2022-11-23T19:22:19.802Z,96099.84
2022-11-23T19:24:48.474Z,96104.16
2022-11-23T19:27:17.233Z,96098.53
2022-11-23T19:29:45.727Z,96107.91
2022-11-23T19:32:15.542Z,96111.38
2022-11-23T19:34:43.991Z,96120.25
2022-11-23T19:37:12.504Z,96119.44
2022-11-23T19:39:41.025Z,96122.22
2022-11-23T19:42:09.529Z,96131.09
2022-11-23T19:44:37.982Z,96133.88
2022-11-23T19:47:13.228Z,96143.44
2022-11-23T19:49:45.295Z,96142.59
2022-11-23T19:52:14.220Z,96143.59
2022-11-23T19:54:43.007Z,96146.38
2022-11-23T19:57:12.111Z,96157.59
2022-11-23T19:59:40.891Z,96163.00
2022-11-23T20:02:10.094Z,96170.06
2022-11-23T20:04:38.803Z,96164.97
2022-11-23T20:07:08.725Z,96174.81
2022-11-23T20:09:37.397Z,96179.94
2022-11-23T20:12:06.035Z,96187.00
2022-11-23T20:14:34.511Z,96189.78
2022-11-23T20:17:02.845Z,96202.13
2022-11-23T20:19:31.570Z,96215.28
2022-11-23T20:22:00.336Z,96223.19
2022-11-23T20:24:30.126Z,96211.31
2022-11-23T20:26:58.594Z,96220.03
2022-11-23T20:29:27.901Z,96234.19
2022-11-23T20:31:56.432Z,96235.00
2022-11-23T20:34:26.470Z,96244.03
2022-11-23T20:36:55.007Z,96242.22
2022-11-23T20:39:23.363Z,96242.22
2022-11-23T20:41:53.164Z,96238.91
2022-11-23T20:44:23.478Z,96254.56
2022-11-23T20:47:07.315Z,96247.94
2022-11-23T20:49:36.197Z,96253.88
2022-11-23T20:52:04.960Z,96258.47
2022-11-23T20:54:33.714Z,96265.53
2022-11-23T20:57:03.754Z,96267.34
2022-11-23T20:59:33.026Z,96269.16
2022-11-23T21:02:01.512Z,96284.81
2022-11-23T21:04:29.911Z,96279.84
2022-11-23T21:06:58.227Z,96285.09
2022-11-23T21:09:26.604Z,96287.06
2022-11-23T21:12:11.585Z,96290.50
2022-11-23T21:14:41.332Z,96290.50
2022-11-23T21:17:09.724Z,96293.16
2022-11-23T21:19:39.788Z,96298.84
2022-11-23T21:22:10.004Z,96295.41
2022-11-23T21:24:38.475Z,96295.53
2022-11-23T21:27:08.667Z,96301.63
2022-11-23T21:29:37.170Z,96304.41
2022-11-23T21:32:07.262Z,96300.81
2022-11-23T21:34:35.773Z,96300.81
2022-11-23T21:37:04.903Z,96302.47
2022-11-23T21:39:33.584Z,96304.28
2022-11-23T21:42:02.053Z,96298.03
2022-11-23T21:44:30.467Z,96303.28
2022-11-23T21:46:58.878Z,96301.63
2022-11-23T21:49:29.747Z,96296.38
2022-11-23T21:51:58.151Z,96293.06
2022-11-23T21:54:27.068Z,96307.06
2022-11-23T21:56:55.733Z,96297.19
2022-11-23T21:59:24.943Z,96295.69
2022-11-23T22:01:57.108Z,96303.28
2022-11-23T22:04:25.727Z,96300.13
2022-11-23T22:06:55.548Z,96300.97
2022-11-23T22:09:23.891Z,96302.63
2022-11-23T22:11:52.282Z,96301.94
2022-11-23T22:14:21.972Z,96315.78
2022-11-23T22:16:50.664Z,96316.75
2022-11-23T22:19:19.452Z,96315.25
2022-11-23T22:21:48.277Z,96319.38
2022-11-23T22:24:19.399Z,96327.44
2022-11-23T22:26:48.617Z,96316.91
2022-11-23T22:29:17.269Z,96313.59
2022-11-23T22:31:46.091Z,96323.97
2022-11-23T22:34:15.076Z,96321.34
2022-11-23T22:36:43.548Z,96329.06
2022-11-23T22:39:11.905Z,96328.53
2022-11-23T22:41:41.678Z,96333.50
2022-11-23T22:44:11.067Z,96324.94
2022-11-23T22:46:40.319Z,96332.00
2022-11-23T22:49:09.118Z,96342.69
2022-11-23T22:51:37.901Z,96338.41
2022-11-23T22:54:06.457Z,96338.25
2022-11-23T22:56:34.851Z,96344.19
2022-11-23T22:59:05.671Z,96343.66
2022-11-23T23:01:34.174Z,96354.19
2022-11-23T23:04:03.903Z,96347.25
2022-11-23T23:06:34.927Z,96350.03
2022-11-23T23:09:06.388Z,96347.41
2022-11-23T23:11:35.938Z,96356.13
2022-11-23T23:14:06.061Z,96356.00
2022-11-23T23:16:35.008Z,96355.47
2022-11-23T23:19:03.585Z,96357.41
2022-11-23T23:21:32.119Z,96358.09
2022-11-23T23:24:01.461Z,96369.44
2022-11-23T23:26:30.427Z,96366.13
2022-11-23T23:29:00.434Z,96376.81
2022-11-23T23:31:43.406Z,96382.88
2022-11-23T23:34:17.620Z,96388.00
2022-11-23T23:36:46.036Z,96388.97
2022-11-23T23:39:14.492Z,96387.31
2022-11-23T23:41:43.007Z,96403.78
2022-11-23T23:44:11.841Z,96400.47
2022-11-23T23:46:41.616Z,96404.22
2022-11-23T23:49:09.975Z,96405.06
2022-11-23T23:51:38.447Z,96404.22
2022-11-23T23:54:06.888Z,96416.69
2022-11-23T23:56:35.250Z,96416.69
2022-11-23T23:59:03.708Z,96425.28
